Corpus Christi Army Depot, Texas
Current Conditions -  °F | °C
As of 3:56 PM on Thursday 18 Dec 2014 (Local Time) from KNGP Reporting Station
Overcast Overcast  
Wind Chill: 72°   Ceiling: 8000
Heat Index: 72°   Visibility: 10mi
Dew Point: 69°   Wind: 7mph
Humidity: 91%   Direction: 120°ESE
Pressure: 29.97"   Gusts: NA
Location:  27.6657°N, 97.1897°W
Report Text: KNGP 182156Z 12006KT 10SM SCT013 OVC080 22/21 A2997 RMK AO2 SLP149 T02220206
Loading
Personal Weather Stations






























Interactive Weather Map New forecast layout! Learn more

10-Day Weather Forecast

Advertisements
Track Severe Weather on mobile